createdAt,value
2018-05-24T00:02:23.921Z,4.62
2018-05-24T00:04:52.957Z,4.12
2018-05-24T00:07:21.179Z,4.12
2018-05-24T00:09:49.515Z,5.12
2018-05-24T00:12:17.808Z,4.05
2018-05-24T00:14:46.072Z,4.77
2018-05-24T00:17:14.315Z,6.60
2018-05-24T00:19:42.907Z,5.17
2018-05-24T00:22:11.178Z,4.43
2018-05-24T00:24:39.424Z,3.70
2018-05-24T00:27:07.683Z,6.28
2018-05-24T00:29:36.695Z,4.47
2018-05-24T00:32:04.933Z,4.30
2018-05-24T00:34:33.235Z,3.13
2018-05-24T00:37:02.256Z,3.77
2018-05-24T00:39:30.517Z,3.97
2018-05-24T00:41:59.528Z,5.17
2018-05-24T00:44:27.760Z,6.93
2018-05-24T00:46:56.192Z,3.80
2018-05-24T00:49:25.927Z,4.70
2018-05-24T00:51:54.160Z,7.70
2018-05-24T00:54:23.440Z,3.77
2018-05-24T00:56:51.689Z,4.93
2018-05-24T00:59:19.920Z,4.93
2018-05-24T01:01:48.175Z,5.20
2018-05-24T01:04:16.492Z,5.07
2018-05-24T01:06:44.772Z,4.63
2018-05-24T01:09:13.781Z,5.47
2018-05-24T01:11:42.788Z,3.33
2018-05-24T01:14:11.029Z,4.30
2018-05-24T01:16:39.283Z,4.67
2018-05-24T01:19:07.952Z,3.17
2018-05-24T01:21:36.201Z,4.50
2018-05-24T01:24:05.956Z,6.57
2018-05-24T01:26:34.209Z,3.07
2018-05-24T01:29:03.256Z,4.43
2018-05-24T01:31:31.500Z,4.67
2018-05-24T01:33:59.746Z,5.23
2018-05-24T01:36:54.585Z,3.90
2018-05-24T01:39:22.836Z,3.58
2018-05-24T01:41:52.517Z,4.22
2018-05-24T01:44:20.773Z,3.27
2018-05-24T01:46:49.908Z,3.17
2018-05-24T01:49:18.151Z,4.00
2018-05-24T01:51:46.407Z,4.23
2018-05-24T01:54:15.390Z,3.83
2018-05-24T01:56:44.409Z,4.80
2018-05-24T01:59:12.683Z,2.80
2018-05-24T02:01:40.995Z,4.47
2018-05-24T02:04:09.220Z,3.47
2018-05-24T02:06:38.308Z,4.60
2018-05-24T02:09:06.536Z,3.70
2018-05-24T02:11:35.380Z,4.00
2018-05-24T02:14:03.628Z,4.18
2018-05-24T02:16:31.883Z,4.57
2018-05-24T02:19:00.239Z,2.70
2018-05-24T02:21:29.364Z,2.85
2018-05-24T02:23:57.600Z,4.70
2018-05-24T02:26:25.851Z,3.63
2018-05-24T02:28:54.077Z,4.10
2018-05-24T02:31:22.329Z,3.20
2018-05-24T02:33:50.675Z,3.57
2018-05-24T02:36:19.432Z,7.03
2018-05-24T02:38:47.684Z,3.63
2018-05-24T02:41:15.949Z,2.90
2018-05-24T02:43:44.184Z,4.97
2018-05-24T02:46:12.544Z,4.20
2018-05-24T02:48:40.822Z,6.87
2018-05-24T02:51:09.232Z,4.50
2018-05-24T02:53:37.469Z,3.00
2018-05-24T02:56:05.712Z,4.53
2018-05-24T02:58:34.712Z,4.37
2018-05-24T03:01:03.043Z,4.05
2018-05-24T03:03:31.309Z,5.33
2018-05-24T03:05:59.539Z,4.50
2018-05-24T03:08:28.548Z,3.73
2018-05-24T03:10:57.540Z,5.40
2018-05-24T03:13:26.561Z,3.40
2018-05-24T03:15:54.788Z,4.53
2018-05-24T03:18:23.928Z,3.43
2018-05-24T03:20:52.919Z,3.83
2018-05-24T03:23:21.934Z,4.00
2018-05-24T03:25:50.167Z,4.27
2018-05-24T03:28:18.609Z,4.60
2018-05-24T03:30:46.873Z,4.93
2018-05-24T03:33:15.882Z,5.07
2018-05-24T03:35:44.118Z,5.47
2018-05-24T03:38:12.400Z,4.67
2018-05-24T03:40:41.376Z,4.03
2018-05-24T03:43:09.629Z,4.00
2018-05-24T03:45:37.876Z,6.83
2018-05-24T03:48:06.883Z,5.70
2018-05-24T03:50:35.937Z,4.87
2018-05-24T03:53:04.248Z,4.00
2018-05-24T03:55:33.061Z,4.60
2018-05-24T03:58:02.095Z,6.73
2018-05-24T04:00:42.311Z,5.03
2018-05-24T04:03:22.519Z,5.10
2018-05-24T04:05:51.479Z,4.67
2018-05-24T04:08:20.335Z,4.00
2018-05-24T04:10:48.556Z,4.60
2018-05-24T04:13:16.909Z,5.53
2018-05-24T04:15:45.137Z,4.30
2018-05-24T04:18:13.405Z,4.67
2018-05-24T04:20:41.633Z,4.87
2018-05-24T04:23:09.975Z,4.70
2018-05-24T04:25:38.147Z,10.00
2018-05-24T04:28:06.400Z,4.30
2018-05-24T04:30:35.399Z,5.43
2018-05-24T04:33:04.508Z,7.13
2018-05-24T04:35:32.705Z,7.10
2018-05-24T04:38:00.968Z,5.83
2018-05-24T04:40:29.969Z,6.60
2018-05-24T04:42:58.998Z,6.40
2018-05-24T04:45:27.292Z,4.93
2018-05-24T04:47:55.548Z,4.57
2018-05-24T04:50:23.772Z,7.37
2018-05-24T04:52:52.488Z,7.50
2018-05-24T04:55:21.655Z,8.17
2018-05-24T04:57:50.609Z,6.53
2018-05-24T05:00:18.855Z,5.37
2018-05-24T05:02:47.127Z,8.50
2018-05-24T05:05:15.356Z,5.50
2018-05-24T05:07:43.614Z,9.20
2018-05-24T05:10:12.604Z,8.07
2018-05-24T05:12:41.673Z,5.63
2018-05-24T05:15:10.803Z,8.17
2018-05-24T05:17:39.197Z,5.67
2018-05-24T05:20:08.685Z,6.10
2018-05-24T05:22:36.974Z,6.27
2018-05-24T05:25:05.543Z,6.43
2018-05-24T05:27:33.693Z,5.73
2018-05-24T05:30:02.039Z,6.17
2018-05-24T05:32:31.042Z,5.07
2018-05-24T05:35:00.069Z,6.70
2018-05-24T05:37:28.298Z,6.10
2018-05-24T05:39:56.564Z,8.73
2018-05-24T05:42:24.825Z,5.53
2018-05-24T05:44:53.095Z,6.60
2018-05-24T05:47:22.059Z,8.43
2018-05-24T05:49:51.107Z,6.33
2018-05-24T05:52:20.117Z,8.30
2018-05-24T05:54:49.717Z,10.50
2018-05-24T05:57:18.059Z,8.40
2018-05-24T05:59:46.882Z,6.50
2018-05-24T06:02:15.118Z,8.33
2018-05-24T06:04:44.231Z,5.93
2018-05-24T06:07:13.248Z,6.13
2018-05-24T06:09:41.553Z,6.07
2018-05-24T06:12:10.521Z,5.63
2018-05-24T06:14:38.784Z,7.10
2018-05-24T06:17:07.802Z,6.10
2018-05-24T06:19:36.053Z,7.00
2018-05-24T06:22:04.287Z,7.37
2018-05-24T06:24:32.530Z,7.43
2018-05-24T06:27:01.548Z,5.63
2018-05-24T06:29:29.814Z,8.33
2018-05-24T06:31:58.864Z,6.60
2018-05-24T06:34:28.022Z,6.03
2018-05-24T06:36:57.023Z,6.63
2018-05-24T06:39:25.733Z,6.07
2018-05-24T06:41:53.968Z,7.53
2018-05-24T06:44:24.476Z,6.90
2018-05-24T06:46:52.709Z,7.17
2018-05-24T06:49:21.636Z,6.97
2018-05-24T06:51:49.913Z,9.75
2018-05-24T06:54:18.746Z,7.87
2018-05-24T06:56:46.959Z,7.53
2018-05-24T06:59:17.201Z,13.03
2018-05-24T07:01:45.446Z,9.20
2018-05-24T07:04:15.897Z,8.97
2018-05-24T07:06:44.139Z,6.93
2018-05-24T07:09:12.392Z,8.20
2018-05-24T07:11:41.072Z,7.47
2018-05-24T07:14:09.341Z,8.07
2018-05-24T07:16:37.623Z,7.00
2018-05-24T07:19:05.864Z,7.50
2018-05-24T07:21:34.110Z,6.73
2018-05-24T07:24:02.425Z,7.77
2018-05-24T07:26:30.692Z,7.57
2018-05-24T07:28:59.114Z,7.77
2018-05-24T07:31:28.580Z,8.03
2018-05-24T07:33:56.814Z,7.93
2018-05-24T07:36:25.206Z,6.87
2018-05-24T07:38:53.470Z,7.17
2018-05-24T07:41:23.058Z,7.63
2018-05-24T07:43:51.284Z,6.60
2018-05-24T07:46:19.601Z,7.07
2018-05-24T07:48:47.827Z,8.35
2018-05-24T07:51:16.096Z,7.00
2018-05-24T07:53:45.154Z,7.43
2018-05-24T07:56:13.755Z,8.17
2018-05-24T07:58:43.531Z,10.40
2018-05-24T08:01:11.912Z,8.50
2018-05-24T08:03:41.021Z,7.43
2018-05-24T08:06:09.283Z,8.73
2018-05-24T08:08:37.648Z,8.60
2018-05-24T08:11:05.841Z,11.13
2018-05-24T08:13:34.106Z,7.43
2018-05-24T08:16:03.303Z,6.90
2018-05-24T08:18:32.319Z,7.60
2018-05-24T08:21:01.537Z,7.83
2018-05-24T08:23:30.077Z,7.13
2018-05-24T08:25:58.468Z,8.97
2018-05-24T08:30:36.592Z,8.07
2018-05-24T08:33:04.840Z,7.22
2018-05-24T08:35:33.083Z,10.50
2018-05-24T08:38:02.078Z,8.50
2018-05-24T08:40:30.440Z,8.93
2018-05-24T08:42:59.490Z,7.80
2018-05-24T08:45:27.765Z,10.17
2018-05-24T08:47:56.093Z,7.53
2018-05-24T08:50:25.077Z,8.55
2018-05-24T08:52:53.308Z,8.43
2018-05-24T08:55:22.342Z,8.68
2018-05-24T08:57:50.595Z,11.90
2018-05-24T09:00:21.068Z,10.27
2018-05-24T09:02:49.319Z,8.73
2018-05-24T09:05:17.568Z,12.50
2018-05-24T09:07:45.820Z,9.05
2018-05-24T09:10:14.060Z,8.90
2018-05-24T09:12:42.895Z,10.30
2018-05-24T09:15:11.150Z,8.80
2018-05-24T09:17:39.391Z,8.48
2018-05-24T09:20:07.690Z,8.88
2018-05-24T09:22:37.786Z,9.90
2018-05-24T09:25:06.069Z,8.70
2018-05-24T09:27:34.314Z,8.90
2018-05-24T09:30:02.701Z,8.65
2018-05-24T09:32:31.686Z,8.32
2018-05-24T09:34:59.952Z,9.10
2018-05-24T09:37:29.712Z,13.50
2018-05-24T09:39:58.570Z,7.57
2018-05-24T09:42:26.861Z,15.02
2018-05-24T09:44:55.111Z,11.00
2018-05-24T09:47:24.170Z,10.02
2018-05-24T09:49:52.419Z,10.30
2018-05-24T09:52:20.744Z,10.23
2018-05-24T09:54:48.988Z,9.65
2018-05-24T09:57:17.250Z,10.77
2018-05-24T09:59:46.255Z,11.23
2018-05-24T10:02:14.530Z,9.60
2018-05-24T10:04:42.882Z,10.73
2018-05-24T10:07:11.835Z,10.20
2018-05-24T10:09:40.085Z,9.48
2018-05-24T10:12:09.081Z,9.43
2018-05-24T10:14:37.349Z,9.48
2018-05-24T10:17:05.630Z,11.38
2018-05-24T10:19:35.471Z,12.32
2018-05-24T10:22:03.796Z,11.12
2018-05-24T10:24:32.048Z,11.20
2018-05-24T10:27:00.929Z,9.55
2018-05-24T10:29:29.210Z,10.38
2018-05-24T10:31:57.424Z,10.85
2018-05-24T10:34:25.672Z,10.65
2018-05-24T10:36:53.920Z,11.10
2018-05-24T10:39:22.936Z,12.40
2018-05-24T10:41:51.970Z,11.50
2018-05-24T10:44:20.199Z,9.02
2018-05-24T10:46:49.221Z,9.98
2018-05-24T10:49:17.469Z,10.95
2018-05-24T10:51:45.744Z,9.65
2018-05-24T10:54:14.028Z,10.80
2018-05-24T10:56:42.325Z,10.65
2018-05-24T10:59:10.554Z,12.98
2018-05-24T11:01:38.824Z,12.98
2018-05-24T11:04:07.202Z,12.75
2018-05-24T11:06:36.071Z,9.93
2018-05-24T11:09:06.908Z,10.88
2018-05-24T11:11:37.249Z,10.25
2018-05-24T11:14:05.456Z,13.00
2018-05-24T11:16:34.124Z,10.73
2018-05-24T11:19:02.372Z,9.27
2018-05-24T11:21:30.625Z,11.00
2018-05-24T11:23:58.859Z,10.07
2018-05-24T11:26:27.868Z,10.48
2018-05-24T11:28:56.121Z,10.82
2018-05-24T11:31:26.023Z,10.13
2018-05-24T11:33:54.275Z,9.02
2018-05-24T11:36:23.377Z,8.18
2018-05-24T11:38:51.696Z,10.18
2018-05-24T11:41:19.950Z,8.82
2018-05-24T11:43:48.956Z,10.82
2018-05-24T11:46:17.246Z,10.57
2018-05-24T11:48:45.488Z,10.68
2018-05-24T11:51:13.755Z,8.40
2018-05-24T11:53:42.747Z,9.68
2018-05-24T11:56:11.759Z,11.27
2018-05-24T11:58:40.025Z,9.57
2018-05-24T12:01:09.184Z,9.77
2018-05-24T12:03:37.420Z,9.93
2018-05-24T12:06:05.699Z,12.63
2018-05-24T12:08:33.960Z,8.65
2018-05-24T12:11:02.972Z,6.53
2018-05-24T12:13:31.231Z,4.28
2018-05-24T12:16:00.316Z,4.93
2018-05-24T12:18:28.575Z,4.53
2018-05-24T12:20:56.805Z,4.40
2018-05-24T12:23:25.833Z,4.55
2018-05-24T12:25:54.058Z,3.55
2018-05-24T12:28:22.320Z,3.85
2018-05-24T12:30:51.405Z,4.00
2018-05-24T12:33:19.651Z,4.25
2018-05-24T12:35:48.669Z,7.07
2018-05-24T12:38:16.917Z,4.18
2018-05-24T12:40:45.923Z,4.90
2018-05-24T12:43:14.992Z,5.87
2018-05-24T12:45:43.381Z,6.40
2018-05-24T12:48:11.632Z,4.75
2018-05-24T12:50:39.886Z,4.75
2018-05-24T12:53:08.132Z,6.03
2018-05-24T12:55:36.397Z,6.43
2018-05-24T12:58:04.736Z,6.30
2018-05-24T13:00:33.671Z,5.43
2018-05-24T13:03:02.002Z,5.12
2018-05-24T13:05:30.992Z,4.65
2018-05-24T13:08:00.023Z,4.68
2018-05-24T13:10:28.257Z,4.82
2018-05-24T13:12:56.552Z,4.22
2018-05-24T13:15:24.794Z,4.60
2018-05-24T13:17:53.047Z,5.28
2018-05-24T13:20:22.062Z,5.53
2018-05-24T13:22:51.014Z,6.07
2018-05-24T13:25:20.012Z,9.85
2018-05-24T13:27:49.029Z,7.85
2018-05-24T13:30:17.253Z,6.95
2018-05-24T13:32:45.513Z,6.37
2018-05-24T13:35:13.763Z,8.20
2018-05-24T13:37:42.019Z,6.78
2018-05-24T13:40:11.021Z,8.38
2018-05-24T13:42:40.881Z,7.37
2018-05-24T13:45:09.135Z,7.05
2018-05-24T13:47:37.469Z,6.97
2018-05-24T13:50:05.736Z,9.20
2018-05-24T13:52:34.073Z,9.82
2018-05-24T13:55:02.279Z,7.78
2018-05-24T13:57:42.251Z,8.98
2018-05-24T14:00:10.871Z,9.15
2018-05-24T14:02:39.132Z,6.63
2018-05-24T14:05:08.109Z,6.90
2018-05-24T14:07:36.383Z,7.00
2018-05-24T14:10:04.663Z,7.80
2018-05-24T14:12:35.291Z,7.37
2018-05-24T14:15:04.352Z,6.33
2018-05-24T14:17:32.738Z,6.78
2018-05-24T14:20:00.939Z,6.80
2018-05-24T14:22:29.245Z,7.53
2018-05-24T14:24:57.555Z,6.47
2018-05-24T14:27:25.784Z,7.20
2018-05-24T14:29:54.030Z,6.25
2018-05-24T14:32:22.379Z,8.85
2018-05-24T14:34:51.474Z,5.93
2018-05-24T14:37:19.725Z,6.68
2018-05-24T14:39:48.744Z,6.28
2018-05-24T14:42:16.987Z,6.72
2018-05-24T14:44:46.008Z,7.87
2018-05-24T14:47:14.285Z,7.57
2018-05-24T14:49:44.291Z,7.10
2018-05-24T14:52:13.318Z,8.20
2018-05-24T14:54:42.083Z,8.88
2018-05-24T14:57:11.081Z,8.63
2018-05-24T14:59:40.103Z,7.47
2018-05-24T15:02:08.453Z,9.88
2018-05-24T15:04:36.728Z,8.93
2018-05-24T15:07:04.978Z,8.65
2018-05-24T15:09:33.591Z,8.63
2018-05-24T15:12:01.833Z,7.70
2018-05-24T15:14:30.079Z,9.57
2018-05-24T15:16:59.097Z,10.02
2018-05-24T15:19:27.644Z,8.95
2018-05-24T15:21:55.893Z,10.18
2018-05-24T15:24:24.145Z,10.98
2018-05-24T15:26:52.392Z,11.52
2018-05-24T15:29:21.432Z,11.15
2018-05-24T15:31:50.529Z,10.98
2018-05-24T15:34:18.793Z,9.57
2018-05-24T15:36:48.566Z,11.23
2018-05-24T15:39:16.839Z,13.32
2018-05-24T15:41:45.168Z,14.60
2018-05-24T15:44:14.191Z,13.45
2018-05-24T15:46:42.884Z,11.60
2018-05-24T15:49:11.166Z,12.02
2018-05-24T15:51:39.503Z,13.80
2018-05-24T15:54:07.753Z,13.20
2018-05-24T15:56:36.012Z,12.93
2018-05-24T15:59:04.900Z,12.75
2018-05-24T16:01:33.158Z,12.88
2018-05-24T16:04:02.187Z,12.25
2018-05-24T16:06:30.463Z,12.23
2018-05-24T16:08:58.725Z,13.77
2018-05-24T16:11:29.344Z,13.88
2018-05-24T16:13:58.368Z,14.38
2018-05-24T16:16:26.830Z,12.70
2018-05-24T16:18:55.093Z,13.40
2018-05-24T16:21:23.846Z,14.55
2018-05-24T16:23:52.097Z,13.20
2018-05-24T16:26:21.141Z,14.02
2018-05-24T16:28:49.398Z,13.50
2018-05-24T16:31:18.282Z,12.40
2018-05-24T16:33:47.285Z,12.88
2018-05-24T16:36:15.674Z,13.00
2018-05-24T16:38:43.965Z,13.15
2018-05-24T16:41:12.245Z,12.93
2018-05-24T16:43:41.114Z,11.05
2018-05-24T16:46:10.127Z,11.70
2018-05-24T16:48:38.430Z,12.13
2018-05-24T16:51:07.371Z,11.20
2018-05-24T16:53:36.339Z,11.63
2018-05-24T16:56:04.624Z,12.15
2018-05-24T16:58:34.122Z,11.85
2018-05-24T17:01:02.371Z,12.50
2018-05-24T17:03:31.400Z,11.68
2018-05-24T17:05:59.683Z,12.77
2018-05-24T17:08:27.908Z,12.32
2018-05-24T17:10:56.957Z,11.68
2018-05-24T17:13:26.103Z,14.25
2018-05-24T17:15:55.115Z,13.73
2018-05-24T17:18:24.237Z,11.10
2018-05-24T17:20:52.509Z,12.02
2018-05-24T17:23:21.535Z,11.12
2018-05-24T17:25:49.934Z,11.60
2018-05-24T17:28:18.202Z,10.83
2018-05-24T17:30:47.269Z,10.95
2018-05-24T17:33:15.623Z,10.00
2018-05-24T17:35:43.899Z,10.03
2018-05-24T17:38:12.151Z,11.10
2018-05-24T17:40:40.429Z,9.63
2018-05-24T17:43:09.925Z,10.40
2018-05-24T17:45:38.964Z,11.25
2018-05-24T17:48:08.109Z,9.70
2018-05-24T17:50:37.013Z,10.07
2018-05-24T17:53:06.680Z,11.13
2018-05-24T17:55:35.642Z,9.82
2018-05-24T17:58:04.371Z,10.75
2018-05-24T18:00:32.678Z,11.00
2018-05-24T18:03:00.941Z,8.90
2018-05-24T18:05:29.211Z,10.37
2018-05-24T18:07:59.070Z,9.52
2018-05-24T18:10:28.175Z,10.43
2018-05-24T18:12:56.455Z,10.68
2018-05-24T18:15:25.492Z,10.43
2018-05-24T18:17:54.347Z,9.90
2018-05-24T18:20:22.619Z,10.57
2018-05-24T18:22:51.901Z,9.63
2018-05-24T18:25:20.144Z,10.57
2018-05-24T18:27:48.403Z,9.90
2018-05-24T18:30:17.609Z,10.75
2018-05-24T18:32:47.569Z,10.50
2018-05-24T18:35:15.833Z,10.15
2018-05-24T18:37:44.135Z,10.02
2018-05-24T18:40:12.413Z,10.50
2018-05-24T18:42:40.776Z,11.43
2018-05-24T18:45:09.053Z,11.30
2018-05-24T18:47:37.383Z,11.30
2018-05-24T18:50:05.665Z,10.90
2018-05-24T18:52:33.997Z,11.73
2018-05-24T18:55:02.281Z,11.43
2018-05-24T18:57:30.574Z,11.73
2018-05-24T18:59:58.833Z,10.32
2018-05-24T19:02:27.143Z,10.43
2018-05-24T19:04:55.380Z,11.53
2018-05-24T19:07:24.868Z,11.68
2018-05-24T19:09:53.151Z,9.33
2018-05-24T19:12:21.468Z,12.13
2018-05-24T19:14:49.726Z,11.13
2018-05-24T19:17:18.769Z,11.20
2018-05-24T19:19:47.256Z,10.77
2018-05-24T19:22:15.526Z,10.98
2018-05-24T19:24:43.771Z,11.70
2018-05-24T19:27:12.823Z,11.32
2018-05-24T19:29:41.110Z,10.23
2018-05-24T19:32:09.363Z,12.65
2018-05-24T19:34:37.631Z,12.48
2018-05-24T19:37:06.688Z,11.55
2018-05-24T19:39:34.962Z,10.17
2018-05-24T19:42:04.199Z,12.40
2018-05-24T19:44:33.709Z,13.35
2018-05-24T19:47:02.803Z,12.07
2018-05-24T19:49:32.696Z,11.98
2018-05-24T19:52:00.967Z,11.65
2018-05-24T19:54:29.240Z,11.40
2018-05-24T19:56:57.589Z,11.27
2018-05-24T19:59:25.851Z,10.73
2018-05-24T20:01:55.238Z,11.63
2018-05-24T20:04:23.696Z,13.18
2018-05-24T20:06:52.029Z,14.20
2018-05-24T20:09:21.941Z,15.10
2018-05-24T20:11:50.988Z,15.90
2018-05-24T20:14:19.489Z,13.60
2018-05-24T20:16:47.776Z,13.02
2018-05-24T20:19:16.640Z,15.20
2018-05-24T20:21:44.927Z,14.13
2018-05-24T20:24:13.175Z,11.15
2018-05-24T20:26:42.231Z,11.45
2018-05-24T20:29:10.509Z,11.98
2018-05-24T20:31:38.820Z,13.02
2018-05-24T20:34:07.098Z,13.70
2018-05-24T20:36:35.357Z,12.07
2018-05-24T20:39:03.678Z,13.40
2018-05-24T20:41:32.148Z,14.95
2018-05-24T20:44:00.468Z,16.85
2018-05-24T20:46:30.775Z,14.40
2018-05-24T20:48:59.015Z,14.60
2018-05-24T20:51:27.275Z,14.25
2018-05-24T20:53:55.662Z,14.95
2018-05-24T20:56:23.969Z,14.60
2018-05-24T20:58:52.221Z,14.50
2018-05-24T21:01:20.479Z,15.40
2018-05-24T21:03:48.807Z,15.27
2018-05-24T21:06:17.823Z,14.63
2018-05-24T21:08:46.556Z,15.20
2018-05-24T21:11:14.814Z,16.92
2018-05-24T21:13:44.636Z,15.73
2018-05-24T21:16:13.444Z,14.85
2018-05-24T21:18:42.563Z,16.47
2018-05-24T21:21:11.572Z,16.33
2018-05-24T21:23:40.581Z,16.37
2018-05-24T21:26:08.857Z,16.87
2018-05-24T21:28:37.608Z,17.33
2018-05-24T21:31:06.631Z,18.60
2018-05-24T21:33:34.920Z,16.02
2018-05-24T21:36:03.148Z,17.50
2018-05-24T21:38:32.216Z,17.43
2018-05-24T21:41:00.490Z,16.67
2018-05-24T21:43:28.849Z,16.20
2018-05-24T21:45:57.103Z,17.70
2018-05-24T21:48:26.997Z,19.67
2018-05-24T21:50:55.983Z,17.93
2018-05-24T21:53:24.231Z,17.33
2018-05-24T21:55:52.476Z,18.53
2018-05-24T21:58:21.511Z,18.87
2018-05-24T22:00:50.760Z,19.60
2018-05-24T22:03:19.791Z,19.00
2018-05-24T22:05:48.806Z,18.50
2018-05-24T22:08:17.095Z,21.08
2018-05-24T22:10:45.335Z,19.63
2018-05-24T22:13:14.382Z,21.80
2018-05-24T22:15:42.627Z,18.75
2018-05-24T22:18:11.719Z,21.53
2018-05-24T22:20:40.762Z,17.47
2018-05-24T22:23:09.040Z,18.30
2018-05-24T22:25:37.373Z,19.13
2018-05-24T22:28:06.523Z,20.30
2018-05-24T22:30:34.761Z,20.23
2018-05-24T22:33:03.127Z,19.43
2018-05-24T22:35:31.415Z,20.87
2018-05-24T22:37:59.703Z,21.10
2018-05-24T22:40:28.019Z,20.50
2018-05-24T22:42:57.012Z,19.17
2018-05-24T22:45:26.188Z,19.90
2018-05-24T22:47:54.525Z,17.95
2018-05-24T22:50:24.186Z,19.00
2018-05-24T22:52:52.428Z,18.67
2018-05-24T22:55:20.692Z,21.37
2018-05-24T22:57:48.958Z,20.43
2018-05-24T23:00:17.784Z,20.90
2018-05-24T23:02:46.062Z,20.57
2018-05-24T23:05:14.363Z,17.70
2018-05-24T23:07:42.605Z,20.47
2018-05-24T23:10:10.893Z,19.63
2018-05-24T23:12:39.196Z,18.65
2018-05-24T23:15:07.700Z,19.73
2018-05-24T23:17:36.216Z,18.73
2018-05-24T23:20:04.552Z,19.47
2018-05-24T23:22:37.692Z,20.33
2018-05-24T23:25:06.739Z,21.07
2018-05-24T23:27:35.024Z,20.83
2018-05-24T23:30:03.293Z,20.07
2018-05-24T23:32:31.668Z,20.57
2018-05-24T23:34:59.920Z,22.73
2018-05-24T23:37:28.948Z,21.77
2018-05-24T23:39:57.347Z,22.43
2018-05-24T23:42:26.460Z,23.02
2018-05-24T23:44:54.739Z,22.90
2018-05-24T23:47:23.040Z,25.73
2018-05-24T23:49:51.325Z,25.00
2018-05-24T23:52:19.599Z,24.70
2018-05-24T23:54:47.880Z,29.30
2018-05-24T23:57:17.008Z,32.27
2018-05-24T23:59:46.124Z,29.90
